SVR1829 UUDD-URMO
Flight info
| Callsign | SVR1829 |
|---|---|
| Flight time | 2h 46m |
| Altitude | 35000 |
| Route | K0848F350 TOGMO4Q TOGMO M56 ABAGI DCT WGD A927 SL N50 LIDUS DCT ZG DCT ITAKA DCT AMKOL DCT REMKA W86 GASNI G914 GORAK GORAK5S |
| Aircraft | A321/M-SDE3FGHIRWY/LB1 |
Departure
| Time | 2026-04-20 06:25 |
|---|---|
| Airport | Domodedovo International Airport (UUDD) |
Arrival
| Time | 2026-04-20 09:12 |
|---|---|
| Airport | Vladikavkaz Beslan International Airport (URMO) |
| Time | Latitude | Longitude | Altitude | Speed | Heading |
|---|---|---|---|---|---|
| 2026-04-20 06:12 | 55.41606 | 37.88384 | 581 ft | 0 kts | 56° |
| 2026-04-20 06:20 | 55.41615 | 37.88416 | 581 ft | 6 kts | 76° |
| 2026-04-20 06:20 | 55.41584 | 37.88511 | 581 ft | 13 kts | 148° |
| 2026-04-20 06:21 | 55.41533 | 37.88449 | 581 ft | 10 kts | 236° |
| 2026-04-20 06:21 | 55.41483 | 37.88357 | 581 ft | 11 kts | 197° |
| 2026-04-20 06:21 | 55.41428 | 37.88395 | 580 ft | 15 kts | 146° |
| 2026-04-20 06:21 | 55.41338 | 37.88504 | 580 ft | 17 kts | 145° |
| 2026-04-20 06:22 | 55.41221 | 37.88645 | 578 ft | 25 kts | 147° |
| 2026-04-20 06:22 | 55.41053 | 37.88852 | 576 ft | 34 kts | 148° |
| 2026-04-20 06:22 | 55.40843 | 37.89100 | 573 ft | 38 kts | 146° |
| 2026-04-20 06:22 | 55.40625 | 37.89364 | 567 ft | 39 kts | 145° |
| 2026-04-20 06:23 | 55.40403 | 37.89634 | 568 ft | 39 kts | 146° |
| 2026-04-20 06:23 | 55.40175 | 37.89905 | 563 ft | 40 kts | 145° |
| 2026-04-20 06:23 | 55.39946 | 37.90182 | 557 ft | 40 kts | 146° |
| 2026-04-20 06:23 | 55.39713 | 37.90460 | 550 ft | 41 kts | 145° |
| 2026-04-20 06:24 | 55.39582 | 37.90487 | 544 ft | 14 kts | 242° |
| 2026-04-20 06:24 | 55.39533 | 37.90329 | 542 ft | 12 kts | 266° |
| 2026-04-20 06:24 | 55.39586 | 37.90247 | 543 ft | 6 kts | 326° |
| 2026-04-20 06:24 | 55.39644 | 37.90177 | 545 ft | 26 kts | 326° |
| 2026-04-20 06:25 | 55.40004 | 37.89748 | 558 ft | 96 kts | 326° |
| 2026-04-20 06:25 | 55.40720 | 37.88888 | 574 ft | 152 kts | 326° |
| 2026-04-20 06:25 | 55.41641 | 37.87757 | 1050 ft | 162 kts | 326° |
| 2026-04-20 06:25 | 55.42167 | 37.86011 | 1809 ft | 178 kts | 272° |
| 2026-04-20 06:26 | 55.41572 | 37.84064 | 2480 ft | 193 kts | 213° |
| 2026-04-20 06:26 | 55.40299 | 37.83459 | 2911 ft | 193 kts | 169° |
| 2026-04-20 06:26 | 55.38909 | 37.83622 | 3246 ft | 206 kts | 165° |
| 2026-04-20 06:26 | 55.37596 | 37.84513 | 3693 ft | 202 kts | 141° |
| 2026-04-20 06:27 | 55.36448 | 37.85951 | 4146 ft | 205 kts | 131° |
| 2026-04-20 06:27 | 55.35339 | 37.87651 | 4502 ft | 218 kts | 130° |
| 2026-04-20 06:27 | 55.34133 | 37.89427 | 4829 ft | 236 kts | 134° |
| 2026-04-20 06:27 | 55.32780 | 37.91322 | 5097 ft | 260 kts | 135° |
| 2026-04-20 06:28 | 55.31368 | 37.93240 | 5708 ft | 267 kts | 136° |
| 2026-04-20 06:28 | 55.29861 | 37.95198 | 6475 ft | 270 kts | 137° |
| 2026-04-20 06:28 | 55.28328 | 37.97127 | 7194 ft | 273 kts | 138° |
| 2026-04-20 06:28 | 55.26766 | 37.99054 | 7925 ft | 276 kts | 139° |
| 2026-04-20 06:29 | 55.25177 | 38.00990 | 8626 ft | 279 kts | 139° |
| 2026-04-20 06:29 | 55.23571 | 38.02931 | 9326 ft | 282 kts | 141° |
| 2026-04-20 06:29 | 55.21949 | 38.04885 | 10025 ft | 284 kts | 141° |
| 2026-04-20 06:29 | 55.20281 | 38.06897 | 10335 ft | 301 kts | 141° |
| 2026-04-20 06:30 | 55.18495 | 38.09054 | 10467 ft | 322 kts | 141° |
| 2026-04-20 06:30 | 55.16613 | 38.11322 | 10682 ft | 338 kts | 141° |
| 2026-04-20 06:30 | 55.14624 | 38.13715 | 10812 ft | 355 kts | 142° |
| 2026-04-20 06:30 | 55.12551 | 38.16195 | 11095 ft | 366 kts | 142° |
| 2026-04-20 06:31 | 55.10433 | 38.18719 | 11644 ft | 369 kts | 142° |
| 2026-04-20 06:31 | 55.08308 | 38.21249 | 12208 ft | 372 kts | 142° |
| 2026-04-20 06:31 | 55.06157 | 38.23804 | 12760 ft | 375 kts | 143° |
| 2026-04-20 06:31 | 55.03997 | 38.26369 | 13341 ft | 377 kts | 143° |
| 2026-04-20 06:32 | 55.01822 | 38.28955 | 13878 ft | 380 kts | 143° |
| 2026-04-20 06:32 | 54.99625 | 38.31566 | 14341 ft | 383 kts | 142° |
| 2026-04-20 06:32 | 54.97422 | 38.34181 | 14980 ft | 379 kts | 143° |
| 2026-04-20 06:32 | 54.95275 | 38.36723 | 15949 ft | 370 kts | 142° |
| 2026-04-20 06:33 | 54.93155 | 38.39237 | 16614 ft | 369 kts | 142° |
| 2026-04-20 06:33 | 54.91034 | 38.41753 | 17168 ft | 370 kts | 142° |
| 2026-04-20 06:33 | 54.88904 | 38.44278 | 17705 ft | 371 kts | 143° |
| 2026-04-20 06:33 | 54.86764 | 38.46810 | 18194 ft | 374 kts | 143° |
| 2026-04-20 06:34 | 54.84611 | 38.49351 | 18641 ft | 375 kts | 143° |
| 2026-04-20 06:34 | 54.82447 | 38.51899 | 19079 ft | 377 kts | 143° |
| 2026-04-20 06:34 | 54.78089 | 38.57018 | 19970 ft | 380 kts | 143° |
| 2026-04-20 06:35 | 54.75887 | 38.59594 | 20371 ft | 382 kts | 144° |
| 2026-04-20 06:35 | 54.73677 | 38.62175 | 20789 ft | 385 kts | 144° |
| 2026-04-20 06:35 | 54.71454 | 38.64770 | 21203 ft | 387 kts | 144° |
| 2026-04-20 06:35 | 54.69221 | 38.67381 | 21613 ft | 389 kts | 144° |
| 2026-04-20 06:36 | 54.66973 | 38.70006 | 22031 ft | 391 kts | 144° |
| 2026-04-20 06:36 | 54.64713 | 38.72644 | 22443 ft | 394 kts | 144° |
| 2026-04-20 06:36 | 54.62435 | 38.75298 | 22819 ft | 397 kts | 144° |
| 2026-04-20 06:36 | 54.60173 | 38.77927 | 23199 ft | 399 kts | 144° |
| 2026-04-20 06:37 | 54.57858 | 38.80607 | 23548 ft | 402 kts | 144° |
| 2026-04-20 06:37 | 54.55532 | 38.83294 | 23857 ft | 404 kts | 144° |
| 2026-04-20 06:37 | 54.53193 | 38.86000 | 24145 ft | 406 kts | 146° |
| 2026-04-20 06:37 | 54.50835 | 38.88721 | 24438 ft | 409 kts | 146° |
| 2026-04-20 06:38 | 54.48468 | 38.91451 | 24734 ft | 411 kts | 146° |
| 2026-04-20 06:38 | 54.46084 | 38.94195 | 25057 ft | 413 kts | 146° |
| 2026-04-20 06:38 | 54.43694 | 38.96940 | 25370 ft | 415 kts | 146° |
| 2026-04-20 06:38 | 54.41378 | 38.99919 | 25615 ft | 417 kts | 138° |
| 2026-04-20 06:39 | 54.39370 | 39.03523 | 25869 ft | 420 kts | 129° |
| 2026-04-20 06:39 | 54.37736 | 39.07691 | 26139 ft | 423 kts | 119° |
| 2026-04-20 06:39 | 54.36509 | 39.12292 | 26417 ft | 426 kts | 113° |
| 2026-04-20 06:39 | 54.35390 | 39.17001 | 26682 ft | 428 kts | 113° |
| 2026-04-20 06:40 | 54.34253 | 39.21724 | 26900 ft | 431 kts | 114° |
| 2026-04-20 06:40 | 54.33102 | 39.26480 | 27130 ft | 433 kts | 114° |
| 2026-04-20 06:40 | 54.31942 | 39.31259 | 27382 ft | 436 kts | 114° |
| 2026-04-20 06:40 | 54.30772 | 39.36060 | 27620 ft | 438 kts | 114° |
| 2026-04-20 06:41 | 54.29596 | 39.40880 | 27859 ft | 440 kts | 115° |
| 2026-04-20 06:41 | 54.28416 | 39.45728 | 28110 ft | 442 kts | 114° |
| 2026-04-20 06:41 | 54.27230 | 39.50585 | 28321 ft | 444 kts | 114° |
| 2026-04-20 06:41 | 54.26033 | 39.55468 | 28541 ft | 446 kts | 115° |
| 2026-04-20 06:42 | 54.24832 | 39.60368 | 28751 ft | 447 kts | 114° |
| 2026-04-20 06:42 | 54.23626 | 39.65285 | 28944 ft | 449 kts | 114° |
| 2026-04-20 06:42 | 54.22413 | 39.70213 | 29146 ft | 451 kts | 114° |
| 2026-04-20 06:42 | 54.21195 | 39.75157 | 29343 ft | 452 kts | 114° |
| 2026-04-20 06:43 | 54.19971 | 39.80109 | 29605 ft | 452 kts | 115° |
| 2026-04-20 06:43 | 54.18748 | 39.85046 | 29864 ft | 452 kts | 114° |
| 2026-04-20 06:43 | 54.17523 | 39.89979 | 30079 ft | 451 kts | 115° |
| 2026-04-20 06:43 | 54.16295 | 39.94910 | 30280 ft | 452 kts | 115° |
| 2026-04-20 06:44 | 54.15062 | 39.99842 | 30460 ft | 452 kts | 115° |
| 2026-04-20 06:44 | 54.13827 | 40.04762 | 30652 ft | 452 kts | 115° |
| 2026-04-20 06:44 | 54.12591 | 40.09685 | 30872 ft | 450 kts | 115° |
| 2026-04-20 06:44 | 54.11465 | 40.14657 | 31105 ft | 451 kts | 109° |
| 2026-04-20 06:45 | 54.10583 | 40.19788 | 31265 ft | 451 kts | 109° |
| 2026-04-20 06:45 | 54.09702 | 40.24924 | 31448 ft | 452 kts | 109° |
| 2026-04-20 06:45 | 54.08820 | 40.30054 | 31635 ft | 452 kts | 109° |
| 2026-04-20 06:45 | 54.07930 | 40.35188 | 31821 ft | 452 kts | 109° |
| 2026-04-20 06:46 | 54.07033 | 40.40320 | 32003 ft | 452 kts | 109° |
| 2026-04-20 06:46 | 54.06144 | 40.45380 | 32180 ft | 452 kts | 109° |
| 2026-04-20 06:46 | 54.05240 | 40.50509 | 32352 ft | 453 kts | 109° |
| 2026-04-20 06:46 | 54.04335 | 40.55636 | 32522 ft | 453 kts | 109° |
| 2026-04-20 06:47 | 54.03428 | 40.60771 | 32689 ft | 453 kts | 109° |
| 2026-04-20 06:47 | 54.02523 | 40.65899 | 32855 ft | 453 kts | 109° |
| 2026-04-20 06:47 | 54.01614 | 40.71034 | 32994 ft | 453 kts | 110° |
| 2026-04-20 06:47 | 54.00696 | 40.76184 | 33157 ft | 453 kts | 110° |
| 2026-04-20 06:48 | 53.99784 | 40.81308 | 33319 ft | 454 kts | 109° |
| 2026-04-20 06:48 | 53.98870 | 40.86449 | 33479 ft | 454 kts | 109° |
| 2026-04-20 06:48 | 53.97955 | 40.91578 | 33636 ft | 454 kts | 110° |
| 2026-04-20 06:48 | 53.97033 | 40.96709 | 33786 ft | 454 kts | 110° |
| 2026-04-20 06:49 | 53.96105 | 41.01843 | 33913 ft | 455 kts | 110° |
| 2026-04-20 06:49 | 53.95182 | 41.06976 | 34040 ft | 455 kts | 109° |
| 2026-04-20 06:49 | 53.94303 | 41.12141 | 34171 ft | 455 kts | 108° |
| 2026-04-20 06:49 | 53.93458 | 41.17314 | 34305 ft | 456 kts | 108° |
| 2026-04-20 06:50 | 53.92627 | 41.22511 | 34406 ft | 456 kts | 108° |
| 2026-04-20 06:50 | 53.91798 | 41.27704 | 34527 ft | 456 kts | 108° |
| 2026-04-20 06:50 | 53.90959 | 41.32898 | 34666 ft | 456 kts | 108° |
| 2026-04-20 06:51 | 53.89270 | 41.43199 | 34779 ft | 457 kts | 108° |
| 2026-04-20 06:51 | 53.87519 | 41.53615 | 34775 ft | 456 kts | 109° |
| 2026-04-20 06:52 | 53.85782 | 41.63864 | 34774 ft | 455 kts | 109° |
| 2026-04-20 06:52 | 53.84038 | 41.74167 | 34769 ft | 455 kts | 109° |
| 2026-04-20 06:53 | 53.82281 | 41.84474 | 34777 ft | 456 kts | 109° |
| 2026-04-20 06:53 | 53.80514 | 41.94785 | 34781 ft | 456 kts | 109° |
| 2026-04-20 06:54 | 53.78731 | 42.05096 | 34777 ft | 457 kts | 109° |
| 2026-04-20 06:54 | 53.76945 | 42.15394 | 34771 ft | 457 kts | 109° |
| 2026-04-20 06:55 | 53.75149 | 42.25689 | 34770 ft | 457 kts | 110° |
| 2026-04-20 06:55 | 53.73333 | 42.35965 | 34748 ft | 456 kts | 110° |
| 2026-04-20 06:56 | 53.71511 | 42.46236 | 34754 ft | 457 kts | 110° |
| 2026-04-20 06:56 | 53.69565 | 42.56413 | 34738 ft | 453 kts | 118° |
| 2026-04-20 06:56 | 53.68003 | 42.60976 | 34739 ft | 447 kts | 130° |
| 2026-04-20 06:57 | 53.65951 | 42.64853 | 34738 ft | 442 kts | 141° |
| 2026-04-20 06:57 | 53.63499 | 42.67923 | 34727 ft | 437 kts | 153° |
| 2026-04-20 06:57 | 53.60764 | 42.70092 | 34733 ft | 434 kts | 163° |
| 2026-04-20 06:58 | 53.54926 | 42.72499 | 34712 ft | 432 kts | 169° |
| 2026-04-20 06:58 | 53.49045 | 42.74707 | 34712 ft | 433 kts | 169° |
| 2026-04-20 06:59 | 53.43157 | 42.76937 | 34733 ft | 434 kts | 169° |
| 2026-04-20 06:59 | 53.37258 | 42.79163 | 34732 ft | 435 kts | 169° |
| 2026-04-20 07:00 | 53.31356 | 42.81367 | 34738 ft | 435 kts | 169° |
| 2026-04-20 07:00 | 53.25448 | 42.83573 | 34737 ft | 435 kts | 169° |
| 2026-04-20 07:01 | 53.19534 | 42.85761 | 34741 ft | 435 kts | 169° |
| 2026-04-20 07:01 | 53.13620 | 42.87944 | 34748 ft | 436 kts | 169° |
| 2026-04-20 07:02 | 53.07699 | 42.90138 | 34752 ft | 436 kts | 169° |
| 2026-04-20 07:02 | 53.01779 | 42.92324 | 34742 ft | 436 kts | 169° |
| 2026-04-20 07:03 | 52.95859 | 42.94508 | 34735 ft | 436 kts | 169° |
| 2026-04-20 07:03 | 52.89934 | 42.96684 | 34746 ft | 436 kts | 169° |
| 2026-04-20 07:04 | 52.84009 | 42.98856 | 34744 ft | 436 kts | 169° |
| 2026-04-20 07:04 | 52.78073 | 43.01018 | 34747 ft | 437 kts | 169° |
| 2026-04-20 07:05 | 52.72136 | 43.03179 | 34751 ft | 437 kts | 169° |
| 2026-04-20 07:05 | 52.66235 | 43.05325 | 34740 ft | 437 kts | 169° |
| 2026-04-20 07:06 | 52.60291 | 43.07466 | 34745 ft | 437 kts | 169° |
| 2026-04-20 07:06 | 52.54344 | 43.09600 | 34745 ft | 437 kts | 169° |
| 2026-04-20 07:07 | 52.48399 | 43.11740 | 34755 ft | 438 kts | 169° |
| 2026-04-20 07:07 | 52.42447 | 43.13876 | 34745 ft | 438 kts | 169° |
| 2026-04-20 07:08 | 52.37470 | 43.15656 | 34744 ft | 438 kts | 169° |
| 2026-04-20 07:08 | 52.30541 | 43.18128 | 34748 ft | 439 kts | 170° |
| 2026-04-20 07:09 | 52.24579 | 43.20247 | 34750 ft | 439 kts | 170° |
| 2026-04-20 07:09 | 52.18615 | 43.22370 | 34759 ft | 439 kts | 170° |
| 2026-04-20 07:10 | 52.12650 | 43.24479 | 34757 ft | 439 kts | 170° |
| 2026-04-20 07:10 | 52.07651 | 43.26241 | 34740 ft | 439 kts | 170° |
| 2026-04-20 07:11 | 52.01678 | 43.28337 | 34758 ft | 439 kts | 170° |
| 2026-04-20 07:11 | 51.95744 | 43.30420 | 34752 ft | 439 kts | 170° |
| 2026-04-20 07:12 | 51.89769 | 43.32510 | 34753 ft | 439 kts | 170° |
| 2026-04-20 07:12 | 51.83792 | 43.34589 | 34760 ft | 439 kts | 170° |
| 2026-04-20 07:13 | 51.77815 | 43.36663 | 34741 ft | 439 kts | 170° |
| 2026-04-20 07:13 | 51.71838 | 43.38746 | 34759 ft | 440 kts | 170° |
| 2026-04-20 07:14 | 51.65855 | 43.40831 | 34758 ft | 440 kts | 170° |
| 2026-04-20 07:14 | 51.59868 | 43.42898 | 34754 ft | 440 kts | 170° |
| 2026-04-20 07:15 | 51.53880 | 43.44955 | 34766 ft | 440 kts | 170° |
| 2026-04-20 07:15 | 51.47886 | 43.47017 | 34746 ft | 440 kts | 170° |
| 2026-04-20 07:16 | 51.41891 | 43.49066 | 34765 ft | 441 kts | 170° |
| 2026-04-20 07:16 | 51.35891 | 43.51111 | 34763 ft | 441 kts | 170° |
| 2026-04-20 07:17 | 51.29894 | 43.53164 | 34764 ft | 441 kts | 171° |
| 2026-04-20 07:17 | 51.23890 | 43.55208 | 34766 ft | 441 kts | 171° |
| 2026-04-20 07:18 | 51.17885 | 43.57232 | 34756 ft | 441 kts | 171° |
| 2026-04-20 07:18 | 51.11875 | 43.59270 | 34765 ft | 442 kts | 171° |
| 2026-04-20 07:19 | 51.05864 | 43.61305 | 34763 ft | 441 kts | 171° |
| 2026-04-20 07:19 | 50.99853 | 43.63314 | 34764 ft | 441 kts | 171° |
| 2026-04-20 07:20 | 50.93842 | 43.65326 | 34747 ft | 441 kts | 171° |
| 2026-04-20 07:20 | 50.87834 | 43.67337 | 34751 ft | 442 kts | 171° |
| 2026-04-20 07:21 | 50.81815 | 43.69351 | 34751 ft | 442 kts | 171° |
| 2026-04-20 07:21 | 50.75798 | 43.71362 | 34764 ft | 442 kts | 171° |
| 2026-04-20 07:22 | 50.69817 | 43.73344 | 34759 ft | 442 kts | 171° |
| 2026-04-20 07:22 | 50.63787 | 43.75323 | 34753 ft | 443 kts | 171° |
| 2026-04-20 07:23 | 50.57760 | 43.77309 | 34756 ft | 443 kts | 171° |
| 2026-04-20 07:23 | 50.51725 | 43.79311 | 34765 ft | 443 kts | 171° |
| 2026-04-20 07:24 | 50.45687 | 43.81295 | 34766 ft | 443 kts | 171° |
| 2026-04-20 07:24 | 50.39646 | 43.83254 | 34768 ft | 443 kts | 171° |
| 2026-04-20 07:25 | 50.33604 | 43.85233 | 34753 ft | 444 kts | 171° |
| 2026-04-20 07:25 | 50.27556 | 43.87203 | 34761 ft | 444 kts | 171° |
| 2026-04-20 07:26 | 50.21503 | 43.89175 | 34774 ft | 444 kts | 171° |
| 2026-04-20 07:26 | 50.15445 | 43.91153 | 34764 ft | 445 kts | 171° |
| 2026-04-20 07:27 | 50.09388 | 43.93111 | 34744 ft | 445 kts | 172° |
| 2026-04-20 07:27 | 50.03328 | 43.95051 | 34751 ft | 445 kts | 172° |
| 2026-04-20 07:28 | 49.97264 | 43.96998 | 34759 ft | 445 kts | 172° |
| 2026-04-20 07:28 | 49.91200 | 43.98946 | 34761 ft | 445 kts | 172° |
| 2026-04-20 07:29 | 49.85133 | 44.00888 | 34757 ft | 445 kts | 172° |
| 2026-04-20 07:29 | 49.79072 | 44.02831 | 34743 ft | 445 kts | 172° |
| 2026-04-20 07:30 | 49.73014 | 44.04773 | 34764 ft | 445 kts | 172° |
| 2026-04-20 07:30 | 49.66952 | 44.06705 | 34758 ft | 445 kts | 172° |
| 2026-04-20 07:31 | 49.60930 | 44.08598 | 34764 ft | 445 kts | 172° |
| 2026-04-20 07:31 | 49.54866 | 44.10497 | 34757 ft | 445 kts | 172° |
| 2026-04-20 07:32 | 49.48806 | 44.12404 | 34756 ft | 444 kts | 172° |
| 2026-04-20 07:32 | 49.42751 | 44.14308 | 34757 ft | 444 kts | 172° |
| 2026-04-20 07:33 | 49.36693 | 44.16204 | 34761 ft | 444 kts | 172° |
| 2026-04-20 07:33 | 49.30641 | 44.18098 | 34768 ft | 444 kts | 172° |
| 2026-04-20 07:34 | 49.24595 | 44.19997 | 34746 ft | 443 kts | 172° |
| 2026-04-20 07:34 | 49.18552 | 44.21882 | 34756 ft | 443 kts | 172° |
| 2026-04-20 07:35 | 49.09481 | 44.24686 | 34754 ft | 443 kts | 172° |
| 2026-04-20 07:35 | 49.03437 | 44.26557 | 34755 ft | 443 kts | 172° |
| 2026-04-20 07:36 | 48.97392 | 44.28425 | 34732 ft | 443 kts | 173° |
| 2026-04-20 07:36 | 48.91349 | 44.30284 | 34743 ft | 443 kts | 173° |
| 2026-04-20 07:37 | 48.85305 | 44.32130 | 34773 ft | 443 kts | 172° |
| 2026-04-20 07:37 | 48.79542 | 44.35597 | 34774 ft | 454 kts | 150° |
| 2026-04-20 07:38 | 48.77061 | 44.38598 | 34767 ft | 461 kts | 139° |
| 2026-04-20 07:38 | 48.74994 | 44.42340 | 34755 ft | 467 kts | 127° |
| 2026-04-20 07:38 | 48.71650 | 44.50829 | 34750 ft | 470 kts | 124° |
| 2026-04-20 07:39 | 48.68304 | 44.59324 | 34748 ft | 470 kts | 125° |
| 2026-04-20 07:39 | 48.64937 | 44.67816 | 34743 ft | 471 kts | 125° |
| 2026-04-20 07:40 | 48.61574 | 44.76315 | 34723 ft | 471 kts | 125° |
| 2026-04-20 07:40 | 48.58197 | 44.84812 | 34729 ft | 472 kts | 125° |
| 2026-04-20 07:41 | 48.54811 | 44.93306 | 34740 ft | 473 kts | 125° |
| 2026-04-20 07:41 | 48.51414 | 45.01801 | 34746 ft | 473 kts | 125° |
| 2026-04-20 07:42 | 48.48007 | 45.10287 | 34729 ft | 473 kts | 125° |
| 2026-04-20 07:42 | 48.44614 | 45.18702 | 34743 ft | 473 kts | 125° |
| 2026-04-20 07:43 | 48.40871 | 45.26842 | 34743 ft | 465 kts | 138° |
| 2026-04-20 07:43 | 48.35917 | 45.32719 | 34741 ft | 452 kts | 156° |
| 2026-04-20 07:44 | 48.30294 | 45.36876 | 34726 ft | 450 kts | 159° |
| 2026-04-20 07:44 | 48.24668 | 45.41000 | 34743 ft | 450 kts | 159° |
| 2026-04-20 07:45 | 48.19048 | 45.45122 | 34755 ft | 449 kts | 159° |
| 2026-04-20 07:45 | 48.13430 | 45.49230 | 34758 ft | 449 kts | 159° |
| 2026-04-20 07:46 | 48.07813 | 45.53324 | 34744 ft | 448 kts | 159° |
| 2026-04-20 07:46 | 48.02218 | 45.57403 | 34766 ft | 447 kts | 159° |
| 2026-04-20 07:47 | 47.96630 | 45.61447 | 34777 ft | 446 kts | 159° |
| 2026-04-20 07:47 | 47.91051 | 45.65479 | 34785 ft | 445 kts | 159° |
| 2026-04-20 07:48 | 47.85479 | 45.69492 | 34769 ft | 444 kts | 159° |
| 2026-04-20 07:48 | 47.79915 | 45.73492 | 34784 ft | 444 kts | 159° |
| 2026-04-20 07:49 | 47.74363 | 45.77478 | 34784 ft | 443 kts | 159° |
| 2026-04-20 07:49 | 47.68805 | 45.81445 | 34782 ft | 443 kts | 159° |
| 2026-04-20 07:50 | 47.63253 | 45.85415 | 34778 ft | 443 kts | 159° |
| 2026-04-20 07:50 | 47.57705 | 45.89369 | 34792 ft | 442 kts | 159° |
| 2026-04-20 07:51 | 47.52165 | 45.93310 | 34793 ft | 442 kts | 159° |
| 2026-04-20 07:51 | 47.46626 | 45.97245 | 34801 ft | 442 kts | 159° |
| 2026-04-20 07:52 | 47.41088 | 46.01165 | 34805 ft | 441 kts | 160° |
| 2026-04-20 07:52 | 47.35548 | 46.05070 | 34805 ft | 441 kts | 159° |
| 2026-04-20 07:53 | 47.30017 | 46.08990 | 34802 ft | 441 kts | 159° |
| 2026-04-20 07:53 | 47.24520 | 46.12870 | 34794 ft | 441 kts | 159° |
| 2026-04-20 07:54 | 47.18984 | 46.16752 | 34793 ft | 441 kts | 160° |
| 2026-04-20 07:54 | 47.13452 | 46.20641 | 34804 ft | 441 kts | 160° |
| 2026-04-20 07:55 | 47.07972 | 46.24758 | 34788 ft | 448 kts | 151° |
| 2026-04-20 07:55 | 47.03433 | 46.31187 | 34758 ft | 465 kts | 130° |
| 2026-04-20 07:56 | 47.00286 | 46.39575 | 34777 ft | 472 kts | 122° |
| 2026-04-20 07:56 | 46.97271 | 46.48119 | 34785 ft | 473 kts | 122° |
| 2026-04-20 07:57 | 46.94236 | 46.56667 | 34788 ft | 473 kts | 123° |
| 2026-04-20 07:57 | 46.91699 | 46.63761 | 34804 ft | 474 kts | 123° |
| 2026-04-20 07:58 | 46.88644 | 46.72299 | 34795 ft | 474 kts | 123° |
| 2026-04-20 07:58 | 46.85591 | 46.80825 | 34819 ft | 473 kts | 123° |
| 2026-04-20 07:59 | 46.82541 | 46.89318 | 34827 ft | 471 kts | 123° |
| 2026-04-20 07:59 | 46.79490 | 46.97762 | 34833 ft | 470 kts | 123° |
| 2026-04-20 08:00 | 46.76447 | 47.06164 | 34837 ft | 467 kts | 124° |
| 2026-04-20 08:00 | 46.73412 | 47.14527 | 34840 ft | 466 kts | 124° |
| 2026-04-20 08:01 | 46.70385 | 47.22851 | 34835 ft | 464 kts | 124° |
| 2026-04-20 08:01 | 46.67352 | 47.31135 | 34834 ft | 463 kts | 124° |
| 2026-04-20 08:02 | 46.64322 | 47.39385 | 34831 ft | 461 kts | 125° |
| 2026-04-20 08:02 | 46.61301 | 47.47605 | 34838 ft | 460 kts | 125° |
| 2026-04-20 08:03 | 46.58283 | 47.55795 | 34839 ft | 459 kts | 125° |
| 2026-04-20 08:03 | 46.55260 | 47.63969 | 34844 ft | 459 kts | 125° |
| 2026-04-20 08:04 | 46.52235 | 47.72121 | 34833 ft | 458 kts | 125° |
| 2026-04-20 08:04 | 46.49207 | 47.80249 | 34839 ft | 458 kts | 125° |
| 2026-04-20 08:05 | 46.46173 | 47.88362 | 34836 ft | 457 kts | 125° |
| 2026-04-20 08:05 | 46.43137 | 47.96469 | 34837 ft | 457 kts | 125° |
| 2026-04-20 08:06 | 46.40099 | 48.04572 | 34833 ft | 458 kts | 125° |
| 2026-04-20 08:06 | 46.37051 | 48.12671 | 34839 ft | 458 kts | 125° |
| 2026-04-20 08:07 | 46.33992 | 48.20757 | 34840 ft | 458 kts | 125° |
| 2026-04-20 08:07 | 46.30923 | 48.28839 | 34840 ft | 458 kts | 125° |
| 2026-04-20 08:08 | 46.27858 | 48.36916 | 34823 ft | 458 kts | 125° |
| 2026-04-20 08:08 | 46.24787 | 48.44981 | 34830 ft | 458 kts | 125° |
| 2026-04-20 08:09 | 46.21626 | 48.52933 | 34828 ft | 452 kts | 132° |
| 2026-04-20 08:09 | 46.17290 | 48.59186 | 34828 ft | 434 kts | 152° |
| 2026-04-20 08:10 | 46.11974 | 48.62933 | 34799 ft | 420 kts | 169° |
| 2026-04-20 08:10 | 46.06343 | 48.65204 | 34800 ft | 420 kts | 169° |
| 2026-04-20 08:11 | 46.00706 | 48.67465 | 34812 ft | 421 kts | 169° |
| 2026-04-20 08:11 | 45.95061 | 48.69735 | 34814 ft | 421 kts | 169° |
| 2026-04-20 08:12 | 45.89410 | 48.72000 | 34818 ft | 422 kts | 169° |
| 2026-04-20 08:12 | 45.83757 | 48.74257 | 34828 ft | 422 kts | 169° |
| 2026-04-20 08:13 | 45.78098 | 48.76506 | 34826 ft | 422 kts | 169° |
| 2026-04-20 08:13 | 45.72443 | 48.78761 | 34799 ft | 422 kts | 170° |
| 2026-04-20 08:14 | 45.66776 | 48.81028 | 34807 ft | 423 kts | 170° |
| 2026-04-20 08:14 | 45.61101 | 48.83281 | 34806 ft | 424 kts | 170° |
| 2026-04-20 08:15 | 45.55414 | 48.85530 | 34819 ft | 424 kts | 170° |
| 2026-04-20 08:15 | 45.49758 | 48.87763 | 34801 ft | 424 kts | 170° |
| 2026-04-20 08:16 | 45.44060 | 48.90007 | 34808 ft | 425 kts | 170° |
| 2026-04-20 08:16 | 45.38352 | 48.92247 | 34818 ft | 426 kts | 170° |
| 2026-04-20 08:17 | 45.32635 | 48.94496 | 34819 ft | 426 kts | 170° |
| 2026-04-20 08:17 | 45.26915 | 48.96738 | 34811 ft | 426 kts | 170° |
| 2026-04-20 08:18 | 45.21196 | 48.98974 | 34821 ft | 427 kts | 170° |
| 2026-04-20 08:18 | 45.15470 | 49.01207 | 34832 ft | 427 kts | 170° |
| 2026-04-20 08:19 | 45.09738 | 49.03430 | 34842 ft | 427 kts | 170° |
| 2026-04-20 08:19 | 45.04006 | 49.05647 | 34833 ft | 427 kts | 169° |
| 2026-04-20 08:20 | 44.98278 | 49.07871 | 34841 ft | 427 kts | 169° |
| 2026-04-20 08:20 | 44.92545 | 49.10090 | 34852 ft | 427 kts | 170° |
| 2026-04-20 08:21 | 44.86810 | 49.12301 | 34854 ft | 427 kts | 170° |
| 2026-04-20 08:21 | 44.81077 | 49.14518 | 34843 ft | 427 kts | 169° |
| 2026-04-20 08:22 | 44.75343 | 49.16723 | 34858 ft | 427 kts | 169° |
| 2026-04-20 08:22 | 44.69602 | 49.18914 | 34861 ft | 427 kts | 169° |
| 2026-04-20 08:23 | 44.63862 | 49.21102 | 34849 ft | 427 kts | 169° |
| 2026-04-20 08:23 | 44.58124 | 49.23302 | 34860 ft | 427 kts | 169° |
| 2026-04-20 08:24 | 44.52390 | 49.25498 | 34867 ft | 427 kts | 169° |
| 2026-04-20 08:24 | 44.46653 | 49.27680 | 34875 ft | 427 kts | 169° |
| 2026-04-20 08:25 | 44.40920 | 49.29851 | 34860 ft | 427 kts | 169° |
| 2026-04-20 08:25 | 44.35186 | 49.32025 | 34878 ft | 427 kts | 169° |
| 2026-04-20 08:26 | 44.29459 | 49.34194 | 34879 ft | 426 kts | 169° |
| 2026-04-20 08:26 | 44.23730 | 49.36366 | 34882 ft | 426 kts | 169° |
| 2026-04-20 08:27 | 44.18013 | 49.38527 | 35074 ft | 426 kts | 169° |
| 2026-04-20 08:27 | 44.15147 | 49.39601 | 35193 ft | 427 kts | 169° |
| 2026-04-20 08:27 | 44.12278 | 49.40674 | 35307 ft | 427 kts | 169° |
| 2026-04-20 08:28 | 44.09409 | 49.41750 | 35440 ft | 427 kts | 169° |
| 2026-04-20 08:28 | 44.06537 | 49.42828 | 35561 ft | 428 kts | 169° |
| 2026-04-20 08:28 | 44.03663 | 49.43907 | 35693 ft | 428 kts | 169° |
| 2026-04-20 08:28 | 44.00791 | 49.44985 | 35830 ft | 428 kts | 169° |
| 2026-04-20 08:29 | 43.94990 | 49.46460 | 35868 ft | 419 kts | 187° |
| 2026-04-20 08:29 | 43.92163 | 49.45717 | 35871 ft | 412 kts | 202° |
| 2026-04-20 08:29 | 43.89636 | 49.43905 | 35870 ft | 409 kts | 218° |
| 2026-04-20 08:30 | 43.87585 | 49.41192 | 35871 ft | 409 kts | 232° |
| 2026-04-20 08:30 | 43.86149 | 49.37797 | 35876 ft | 411 kts | 247° |
| 2026-04-20 08:30 | 43.85412 | 49.33964 | 35879 ft | 415 kts | 258° |
| 2026-04-20 08:30 | 43.84939 | 49.30013 | 35876 ft | 416 kts | 258° |
| 2026-04-20 08:31 | 43.83997 | 49.22101 | 35890 ft | 417 kts | 258° |
| 2026-04-20 08:31 | 43.83042 | 49.14178 | 35892 ft | 417 kts | 257° |
| 2026-04-20 08:32 | 43.82085 | 49.06301 | 35898 ft | 418 kts | 257° |
| 2026-04-20 08:32 | 43.81103 | 48.98363 | 35917 ft | 418 kts | 257° |
| 2026-04-20 08:33 | 43.79635 | 48.86462 | 35916 ft | 418 kts | 257° |
| 2026-04-20 08:34 | 43.78659 | 48.78538 | 35922 ft | 418 kts | 257° |
| 2026-04-20 08:34 | 43.77671 | 48.70619 | 35920 ft | 417 kts | 257° |
| 2026-04-20 08:35 | 43.76670 | 48.62718 | 35920 ft | 417 kts | 257° |
| 2026-04-20 08:35 | 43.75664 | 48.54818 | 35920 ft | 417 kts | 257° |
| 2026-04-20 08:36 | 43.74659 | 48.46927 | 35920 ft | 417 kts | 257° |
| 2026-04-20 08:36 | 43.73647 | 48.39041 | 35922 ft | 417 kts | 257° |
| 2026-04-20 08:37 | 43.72633 | 48.31157 | 35924 ft | 416 kts | 257° |
| 2026-04-20 08:37 | 43.71619 | 48.23276 | 35927 ft | 416 kts | 257° |
| 2026-04-20 08:38 | 43.70591 | 48.15404 | 35938 ft | 416 kts | 257° |
| 2026-04-20 08:38 | 43.69560 | 48.07548 | 35933 ft | 415 kts | 257° |
| 2026-04-20 08:39 | 43.68523 | 47.99703 | 35934 ft | 415 kts | 257° |
| 2026-04-20 08:39 | 43.67482 | 47.91863 | 35932 ft | 415 kts | 257° |
| 2026-04-20 08:40 | 43.66434 | 47.84028 | 35929 ft | 415 kts | 257° |
| 2026-04-20 08:40 | 43.65384 | 47.76202 | 35929 ft | 414 kts | 257° |
| 2026-04-20 08:41 | 43.64334 | 47.68377 | 35929 ft | 414 kts | 257° |
| 2026-04-20 08:41 | 43.63280 | 47.60561 | 35929 ft | 414 kts | 257° |
| 2026-04-20 08:42 | 43.62393 | 47.54062 | 35932 ft | 415 kts | 256° |
| 2026-04-20 08:42 | 43.60962 | 47.46391 | 35937 ft | 412 kts | 249° |
| 2026-04-20 08:43 | 43.59121 | 47.38924 | 35953 ft | 410 kts | 249° |
| 2026-04-20 08:43 | 43.57288 | 47.31485 | 35944 ft | 409 kts | 249° |
| 2026-04-20 08:44 | 43.55457 | 47.24055 | 35954 ft | 409 kts | 249° |
| 2026-04-20 08:44 | 43.53622 | 47.16653 | 35957 ft | 408 kts | 249° |
| 2026-04-20 08:45 | 43.51787 | 47.09270 | 35953 ft | 406 kts | 249° |
| 2026-04-20 08:45 | 43.49953 | 47.01916 | 35954 ft | 406 kts | 249° |
| 2026-04-20 08:46 | 43.48117 | 46.94576 | 35954 ft | 405 kts | 249° |
| 2026-04-20 08:46 | 43.46283 | 46.87243 | 35962 ft | 405 kts | 249° |
| 2026-04-20 08:47 | 43.44455 | 46.79969 | 35963 ft | 405 kts | 249° |
| 2026-04-20 08:47 | 43.42609 | 46.72662 | 35961 ft | 404 kts | 248° |
| 2026-04-20 08:48 | 43.40753 | 46.65358 | 35967 ft | 404 kts | 248° |
| 2026-04-20 08:48 | 43.38896 | 46.58064 | 35965 ft | 404 kts | 248° |
| 2026-04-20 08:48 | 43.37965 | 46.54413 | 35826 ft | 405 kts | 248° |
| 2026-04-20 08:49 | 43.37036 | 46.50769 | 35595 ft | 403 kts | 248° |
| 2026-04-20 08:49 | 43.36108 | 46.47137 | 35342 ft | 403 kts | 248° |
| 2026-04-20 08:49 | 43.35181 | 46.43511 | 35096 ft | 402 kts | 248° |
| 2026-04-20 08:49 | 43.34256 | 46.39896 | 34610 ft | 401 kts | 248° |
| 2026-04-20 08:50 | 43.33329 | 46.36285 | 33964 ft | 401 kts | 248° |
| 2026-04-20 08:50 | 43.32403 | 46.32682 | 33190 ft | 401 kts | 248° |
| 2026-04-20 08:50 | 43.31478 | 46.29095 | 32791 ft | 394 kts | 248° |
| 2026-04-20 08:50 | 43.30572 | 46.25572 | 32346 ft | 389 kts | 248° |
| 2026-04-20 08:51 | 43.29671 | 46.22082 | 31886 ft | 386 kts | 248° |
| 2026-04-20 08:51 | 43.28776 | 46.18632 | 31433 ft | 382 kts | 248° |
| 2026-04-20 08:51 | 43.28122 | 46.15105 | 30964 ft | 382 kts | 258° |
| 2026-04-20 08:51 | 43.27953 | 46.11457 | 30468 ft | 385 kts | 268° |
| 2026-04-20 08:52 | 43.28281 | 46.07800 | 29960 ft | 388 kts | 277° |
| 2026-04-20 08:52 | 43.29098 | 46.04271 | 29420 ft | 390 kts | 286° |
| 2026-04-20 08:52 | 43.30096 | 46.00828 | 28920 ft | 385 kts | 285° |
| 2026-04-20 08:52 | 43.31071 | 45.97429 | 28433 ft | 381 kts | 285° |
| 2026-04-20 08:53 | 43.32029 | 45.94062 | 27949 ft | 376 kts | 285° |
| 2026-04-20 08:53 | 43.32973 | 45.90729 | 27499 ft | 373 kts | 285° |
| 2026-04-20 08:53 | 43.33910 | 45.87419 | 27022 ft | 370 kts | 285° |
| 2026-04-20 08:53 | 43.34836 | 45.84143 | 26577 ft | 367 kts | 285° |
| 2026-04-20 08:54 | 43.35755 | 45.80893 | 26131 ft | 364 kts | 285° |
| 2026-04-20 08:54 | 43.36669 | 45.77664 | 25691 ft | 361 kts | 285° |
| 2026-04-20 08:54 | 43.37574 | 45.74467 | 25257 ft | 358 kts | 285° |
| 2026-04-20 08:54 | 43.38475 | 45.71291 | 24859 ft | 354 kts | 285° |
| 2026-04-20 08:55 | 43.39195 | 45.68095 | 24478 ft | 347 kts | 278° |
| 2026-04-20 08:55 | 43.39773 | 45.64880 | 24085 ft | 346 kts | 278° |
| 2026-04-20 08:55 | 43.40356 | 45.61675 | 23700 ft | 345 kts | 278° |
| 2026-04-20 08:55 | 43.40941 | 45.58483 | 23280 ft | 343 kts | 278° |
| 2026-04-20 08:56 | 43.41523 | 45.55307 | 22884 ft | 341 kts | 278° |
| 2026-04-20 08:56 | 43.42101 | 45.52150 | 22505 ft | 340 kts | 278° |
| 2026-04-20 08:56 | 43.42673 | 45.49008 | 22107 ft | 337 kts | 278° |
| 2026-04-20 08:56 | 43.43235 | 45.45888 | 21713 ft | 335 kts | 278° |
| 2026-04-20 08:57 | 43.43786 | 45.42827 | 21323 ft | 332 kts | 278° |
| 2026-04-20 08:57 | 43.44340 | 45.39752 | 20920 ft | 330 kts | 279° |
| 2026-04-20 08:57 | 43.44891 | 45.36695 | 20519 ft | 328 kts | 279° |
| 2026-04-20 08:57 | 43.45439 | 45.33652 | 20116 ft | 327 kts | 279° |
| 2026-04-20 08:58 | 43.45981 | 45.30624 | 19708 ft | 325 kts | 279° |
| 2026-04-20 08:58 | 43.46522 | 45.27613 | 19306 ft | 324 kts | 279° |
| 2026-04-20 08:58 | 43.47059 | 45.24615 | 18876 ft | 322 kts | 279° |
| 2026-04-20 08:58 | 43.47593 | 45.21625 | 18472 ft | 320 kts | 279° |
| 2026-04-20 08:59 | 43.48121 | 45.18658 | 18027 ft | 319 kts | 279° |
| 2026-04-20 08:59 | 43.48647 | 45.15699 | 17590 ft | 317 kts | 279° |
| 2026-04-20 08:59 | 43.49142 | 45.12756 | 17183 ft | 313 kts | 275° |
| 2026-04-20 08:59 | 43.49272 | 45.09790 | 16785 ft | 311 kts | 264° |
| 2026-04-20 09:00 | 43.48940 | 45.06825 | 16358 ft | 315 kts | 252° |
| 2026-04-20 09:00 | 43.48165 | 45.04026 | 15956 ft | 312 kts | 241° |
| 2026-04-20 09:00 | 43.47083 | 45.01448 | 15547 ft | 311 kts | 238° |
| 2026-04-20 09:00 | 43.45986 | 44.98890 | 15124 ft | 310 kts | 238° |
| 2026-04-20 09:01 | 43.44896 | 44.96342 | 14741 ft | 309 kts | 238° |
| 2026-04-20 09:01 | 43.43811 | 44.93800 | 14334 ft | 307 kts | 238° |
| 2026-04-20 09:01 | 43.42727 | 44.91269 | 13931 ft | 306 kts | 238° |
| 2026-04-20 09:01 | 43.41653 | 44.88757 | 13502 ft | 303 kts | 238° |
| 2026-04-20 09:02 | 43.40591 | 44.86274 | 13094 ft | 299 kts | 238° |
| 2026-04-20 09:02 | 43.39539 | 44.83824 | 12705 ft | 297 kts | 238° |
| 2026-04-20 09:02 | 43.38489 | 44.81385 | 12314 ft | 296 kts | 238° |
| 2026-04-20 09:02 | 43.37441 | 44.78954 | 11927 ft | 295 kts | 239° |
| 2026-04-20 09:03 | 43.36402 | 44.76535 | 11541 ft | 293 kts | 239° |
| 2026-04-20 09:03 | 43.35357 | 44.74105 | 11154 ft | 303 kts | 239° |
| 2026-04-20 09:03 | 43.34272 | 44.71584 | 10759 ft | 308 kts | 239° |
| 2026-04-20 09:03 | 43.33181 | 44.69049 | 10353 ft | 309 kts | 239° |
| 2026-04-20 09:04 | 43.32110 | 44.66568 | 10091 ft | 300 kts | 239° |
| 2026-04-20 09:04 | 43.31066 | 44.64153 | 9925 ft | 289 kts | 240° |
| 2026-04-20 09:04 | 43.30269 | 44.61677 | 9788 ft | 283 kts | 255° |
| 2026-04-20 09:04 | 43.30000 | 44.59002 | 9461 ft | 285 kts | 271° |
| 2026-04-20 09:05 | 43.30280 | 44.56313 | 9033 ft | 283 kts | 282° |
| 2026-04-20 09:05 | 43.30678 | 44.53657 | 8529 ft | 284 kts | 281° |
| 2026-04-20 09:05 | 43.31059 | 44.51029 | 8111 ft | 277 kts | 281° |
| 2026-04-20 09:05 | 43.31427 | 44.48449 | 7346 ft | 274 kts | 281° |
| 2026-04-20 09:06 | 43.31786 | 44.45911 | 6769 ft | 269 kts | 281° |
| 2026-04-20 09:06 | 43.32139 | 44.43400 | 6253 ft | 267 kts | 281° |
| 2026-04-20 09:06 | 43.32391 | 44.40853 | 5796 ft | 270 kts | 268° |
| 2026-04-20 09:06 | 43.31899 | 44.38396 | 5334 ft | 273 kts | 240° |
| 2026-04-20 09:07 | 43.30596 | 44.36600 | 5049 ft | 259 kts | 212° |
| 2026-04-20 09:07 | 43.28978 | 44.35802 | 4919 ft | 238 kts | 191° |
| 2026-04-20 09:07 | 43.27370 | 44.35813 | 4803 ft | 227 kts | 172° |
| 2026-04-20 09:07 | 43.25926 | 44.36485 | 4676 ft | 212 kts | 153° |
| 2026-04-20 09:08 | 43.24774 | 44.37637 | 4502 ft | 200 kts | 135° |
| 2026-04-20 09:08 | 43.23936 | 44.39127 | 4232 ft | 195 kts | 118° |
| 2026-04-20 09:08 | 43.23448 | 44.40813 | 4021 ft | 187 kts | 102° |
| 2026-04-20 09:08 | 43.23193 | 44.42520 | 3837 ft | 179 kts | 99° |
| 2026-04-20 09:09 | 43.22952 | 44.44160 | 3655 ft | 172 kts | 100° |
| 2026-04-20 09:09 | 43.22720 | 44.45736 | 3574 ft | 167 kts | 100° |
| 2026-04-20 09:09 | 43.22492 | 44.47286 | 3418 ft | 165 kts | 100° |
| 2026-04-20 09:09 | 43.22267 | 44.48819 | 3234 ft | 163 kts | 100° |
| 2026-04-20 09:10 | 43.22047 | 44.50307 | 3015 ft | 156 kts | 100° |
| 2026-04-20 09:10 | 43.21835 | 44.51752 | 2797 ft | 153 kts | 101° |
| 2026-04-20 09:10 | 43.21627 | 44.53162 | 2561 ft | 149 kts | 102° |
| 2026-04-20 09:10 | 43.21423 | 44.54541 | 2353 ft | 146 kts | 103° |
| 2026-04-20 09:11 | 43.21223 | 44.55898 | 2088 ft | 145 kts | 103° |
| 2026-04-20 09:11 | 43.21026 | 44.57234 | 1907 ft | 143 kts | 103° |
| 2026-04-20 09:11 | 43.20828 | 44.58570 | 1748 ft | 143 kts | 103° |
| 2026-04-20 09:11 | 43.20635 | 44.59860 | 1676 ft | 126 kts | 101° |
| 2026-04-20 09:12 | 43.20499 | 44.60807 | 1675 ft | 76 kts | 101° |
| 2026-04-20 09:12 | 43.20435 | 44.61230 | 1675 ft | 16 kts | 106° |
| 2026-04-20 09:12 | 43.20358 | 44.61280 | 1688 ft | 11 kts | 187° |
| 2026-04-20 09:12 | 43.20295 | 44.61266 | 1681 ft | 10 kts | 189° |
| 2026-04-20 09:13 | 43.20216 | 44.61247 | 1684 ft | 14 kts | 190° |
| 2026-04-20 09:13 | 43.20155 | 44.61183 | 1684 ft | 11 kts | 268° |
| 2026-04-20 09:13 | 43.20170 | 44.61058 | 1682 ft | 17 kts | 281° |
| 2026-04-20 09:13 | 43.20198 | 44.60875 | 1685 ft | 21 kts | 282° |
| 2026-04-20 09:14 | 43.20225 | 44.60685 | 1682 ft | 20 kts | 282° |
| 2026-04-20 09:14 | 43.20247 | 44.60567 | 1686 ft | 8 kts | 285° |
| 2026-04-20 09:14 | 43.20272 | 44.60499 | 1690 ft | 10 kts | 331° |
| 2026-04-20 09:14 | 43.20314 | 44.60421 | 1682 ft | 13 kts | 269° |
| 2026-04-20 09:15 | 43.20278 | 44.60360 | 1687 ft | 0 kts | 215° |
| 2026-04-20 09:15 | 43.20277 | 44.60358 | 1687 ft | 0 kts | 218° |